sensor_id;sensor_type;location;lat;lon;timestamp;P1;durP1;ratioP1;P2;durP2;ratioP2
46330;SDS011;32049;52.346;4.870;2022-08-04T00:08:56;2.97;;;1.88;;
46330;SDS011;32049;52.346;4.870;2022-08-04T00:11:56;4.40;;;1.73;;
46330;SDS011;32049;52.346;4.870;2022-08-04T00:14:57;4.30;;;1.85;;
46330;SDS011;32049;52.346;4.870;2022-08-04T00:17:48;3.97;;;1.88;;
46330;SDS011;32049;52.346;4.870;2022-08-04T00:20:42;4.40;;;1.80;;
46330;SDS011;32049;52.346;4.870;2022-08-04T00:23:43;7.65;;;1.85;;
46330;SDS011;32049;52.346;4.870;2022-08-04T00:26:55;6.10;;;2.17;;
46330;SDS011;32049;52.346;4.870;2022-08-04T00:29:46;6.75;;;1.52;;
46330;SDS011;32049;52.346;4.870;2022-08-04T00:32:41;5.07;;;1.88;;
46330;SDS011;32049;52.346;4.870;2022-08-04T00:35:35;6.70;;;1.63;;
46330;SDS011;32049;52.346;4.870;2022-08-04T00:38:30;4.28;;;1.98;;
46330;SDS011;32049;52.346;4.870;2022-08-04T00:41:29;8.73;;;2.15;;
46330;SDS011;32049;52.346;4.870;2022-08-04T05:32:13;11.43;;;3.03;;
46330;SDS011;32049;52.346;4.870;2022-08-04T05:35:08;5.28;;;1.92;;
46330;SDS011;32049;52.346;4.870;2022-08-04T05:38:33;10.13;;;2.60;;
46330;SDS011;32049;52.346;4.870;2022-08-04T05:41:34;6.75;;;1.88;;
46330;SDS011;32049;52.346;4.870;2022-08-04T05:44:49;6.45;;;1.98;;
46330;SDS011;32049;52.346;4.870;2022-08-04T05:47:41;6.90;;;2.88;;
46330;SDS011;32049;52.346;4.870;2022-08-04T05:50:32;6.80;;;1.95;;
46330;SDS011;32049;52.346;4.870;2022-08-04T05:53:30;6.13;;;2.38;;
46330;SDS011;32049;52.346;4.870;2022-08-04T05:56:25;8.25;;;2.35;;
46330;SDS011;32049;52.346;4.870;2022-08-04T05:59:16;4.18;;;1.77;;
46330;SDS011;32049;52.346;4.870;2022-08-04T06:02:13;8.50;;;1.95;;
46330;SDS011;32049;52.346;4.870;2022-08-04T06:05:07;9.20;;;2.33;;
46330;SDS011;32049;52.346;4.870;2022-08-04T06:08:02;6.63;;;1.92;;
46330;SDS011;32049;52.346;4.870;2022-08-04T06:11:04;9.77;;;2.97;;
46330;SDS011;32049;52.346;4.870;2022-08-04T06:16:49;5.70;;;2.25;;
46330;SDS011;32049;52.346;4.870;2022-08-04T06:20:22;6.38;;;1.67;;
46330;SDS011;32049;52.346;4.870;2022-08-04T06:23:32;6.05;;;2.30;;
46330;SDS011;32049;52.346;4.870;2022-08-04T06:27:08;6.35;;;2.33;;
46330;SDS011;32049;52.346;4.870;2022-08-04T06:30:04;8.48;;;2.47;;
46330;SDS011;32049;52.346;4.870;2022-08-04T06:33:06;9.82;;;2.20;;
46330;SDS011;32049;52.346;4.870;2022-08-04T06:36:25;8.95;;;2.53;;
46330;SDS011;32049;52.346;4.870;2022-08-04T06:39:28;8.60;;;2.45;;
46330;SDS011;32049;52.346;4.870;2022-08-04T06:42:38;9.82;;;2.53;;
46330;SDS011;32049;52.346;4.870;2022-08-04T06:45:41;4.43;;;1.63;;
46330;SDS011;32049;52.346;4.870;2022-08-04T06:48:32;9.68;;;2.65;;
46330;SDS011;32049;52.346;4.870;2022-08-04T06:51:35;7.78;;;2.25;;
46330;SDS011;32049;52.346;4.870;2022-08-04T06:54:34;9.82;;;2.20;;
46330;SDS011;32049;52.346;4.870;2022-08-04T06:57:26;7.95;;;2.70;;
46330;SDS011;32049;52.346;4.870;2022-08-04T07:00:15;3.45;;;2.03;;
46330;SDS011;32049;52.346;4.870;2022-08-04T07:03:04;7.88;;;2.38;;
46330;SDS011;32049;52.346;4.870;2022-08-04T07:05:58;8.13;;;2.80;;
46330;SDS011;32049;52.346;4.870;2022-08-04T07:09:01;8.23;;;2.22;;
46330;SDS011;32049;52.346;4.870;2022-08-04T07:11:51;7.15;;;2.58;;
46330;SDS011;32049;52.346;4.870;2022-08-04T07:14:39;6.75;;;2.42;;
46330;SDS011;32049;52.346;4.870;2022-08-04T07:17:28;6.97;;;2.83;;
46330;SDS011;32049;52.346;4.870;2022-08-04T07:20:20;8.02;;;2.13;;
46330;SDS011;32049;52.346;4.870;2022-08-04T07:23:23;5.60;;;2.35;;
46330;SDS011;32049;52.346;4.870;2022-08-04T07:26:19;8.05;;;2.10;;
46330;SDS011;32049;52.346;4.870;2022-08-04T07:29:16;6.18;;;2.15;;
46330;SDS011;32049;52.346;4.870;2022-08-04T07:32:04;5.30;;;2.42;;
46330;SDS011;32049;52.346;4.870;2022-08-04T07:34:55;5.13;;;2.17;;
46330;SDS011;32049;52.346;4.870;2022-08-04T07:37:52;10.23;;;3.03;;
46330;SDS011;32049;52.346;4.870;2022-08-04T07:40:42;8.80;;;2.92;;
46330;SDS011;32049;52.346;4.870;2022-08-04T07:43:34;4.18;;;1.90;;
46330;SDS011;32049;52.346;4.870;2022-08-04T07:46:32;7.35;;;2.53;;
46330;SDS011;32049;52.346;4.870;2022-08-04T07:49:23;8.13;;;2.55;;
46330;SDS011;32049;52.346;4.870;2022-08-04T07:52:35;7.75;;;3.03;;
46330;SDS011;32049;52.346;4.870;2022-08-04T07:55:26;10.10;;;3.45;;
46330;SDS011;32049;52.346;4.870;2022-08-04T07:58:16;6.20;;;2.40;;
46330;SDS011;32049;52.346;4.870;2022-08-04T08:01:05;9.93;;;2.38;;
46330;SDS011;32049;52.346;4.870;2022-08-04T08:03:59;5.18;;;2.30;;
46330;SDS011;32049;52.346;4.870;2022-08-04T08:07:05;6.20;;;2.10;;
46330;SDS011;32049;52.346;4.870;2022-08-04T08:10:21;5.05;;;1.73;;
46330;SDS011;32049;52.346;4.870;2022-08-04T08:13:32;6.22;;;1.83;;
46330;SDS011;32049;52.346;4.870;2022-08-04T08:17:12;5.55;;;2.10;;
46330;SDS011;32049;52.346;4.870;2022-08-04T08:20:53;8.35;;;2.05;;
46330;SDS011;32049;52.346;4.870;2022-08-04T08:23:50;4.50;;;1.60;;
46330;SDS011;32049;52.346;4.870;2022-08-04T08:27:05;3.65;;;1.63;;
46330;SDS011;32049;52.346;4.870;2022-08-04T08:32:52;4.15;;;1.40;;
46330;SDS011;32049;52.346;4.870;2022-08-04T08:36:18;4.05;;;1.50;;
46330;SDS011;32049;52.346;4.870;2022-08-04T08:44:16;4.13;;;1.50;;
46330;SDS011;32049;52.346;4.870;2022-08-04T08:51:17;5.00;;;1.55;;
46330;SDS011;32049;52.346;4.870;2022-08-04T08:58:01;3.63;;;1.40;;
46330;SDS011;32049;52.346;4.870;2022-08-04T09:01:23;7.50;;;1.60;;
46330;SDS011;32049;52.346;4.870;2022-08-04T09:12:39;4.32;;;1.27;;
46330;SDS011;32049;52.346;4.870;2022-08-04T09:19:51;3.13;;;1.23;;
46330;SDS011;32049;52.346;4.870;2022-08-04T09:28:06;2.75;;;1.40;;
46330;SDS011;32049;52.346;4.870;2022-08-04T09:38:50;2.45;;;1.02;;
46330;SDS011;32049;52.346;4.870;2022-08-04T09:45:38;1.13;;;0.98;;
46330;SDS011;32049;52.346;4.870;2022-08-04T09:49:28;1.80;;;1.00;;
46330;SDS011;32049;52.346;4.870;2022-08-04T09:56:13;2.97;;;1.13;;
46330;SDS011;32049;52.346;4.870;2022-08-04T10:02:54;1.17;;;0.90;;
46330;SDS011;32049;52.346;4.870;2022-08-04T10:24:26;4.22;;;1.05;;
46330;SDS011;32049;52.346;4.870;2022-08-04T10:27:51;2.35;;;0.98;;
46330;SDS011;32049;52.346;4.870;2022-08-04T10:31:20;2.17;;;1.17;;
46330;SDS011;32049;52.346;4.870;2022-08-04T10:34:27;7.43;;;1.23;;
46330;SDS011;32049;52.346;4.870;2022-08-04T10:38:07;3.67;;;1.10;;
46330;SDS011;32049;52.346;4.870;2022-08-04T10:55:27;3.53;;;1.25;;
46330;SDS011;32049;52.346;4.870;2022-08-04T10:59:02;6.35;;;1.17;;
46330;SDS011;32049;52.346;4.870;2022-08-04T11:06:15;5.57;;;0.90;;
46330;SDS011;32049;52.346;4.870;2022-08-04T11:09:23;5.18;;;1.27;;
46330;SDS011;32049;52.346;4.870;2022-08-04T11:12:16;2.05;;;1.20;;
46330;SDS011;32049;52.346;4.870;2022-08-04T11:15:47;2.72;;;0.98;;
46330;SDS011;32049;52.346;4.870;2022-08-04T11:22:35;3.33;;;1.08;;
46330;SDS011;32049;52.346;4.870;2022-08-04T11:32:40;4.13;;;1.33;;
46330;SDS011;32049;52.346;4.870;2022-08-04T11:39:08;0.77;;;0.60;;
46330;SDS011;32049;52.346;4.870;2022-08-04T11:42:22;1.63;;;0.88;;
46330;SDS011;32049;52.346;4.870;2022-08-04T11:45:15;3.45;;;0.93;;
46330;SDS011;32049;52.346;4.870;2022-08-04T11:48:31;3.58;;;1.15;;
46330;SDS011;32049;52.346;4.870;2022-08-04T11:51:30;1.80;;;1.13;;
46330;SDS011;32049;52.346;4.870;2022-08-04T11:54:22;3.97;;;1.02;;
46330;SDS011;32049;52.346;4.870;2022-08-04T11:57:13;2.60;;;1.30;;
46330;SDS011;32049;52.346;4.870;2022-08-04T12:00:06;2.53;;;1.20;;
46330;SDS011;32049;52.346;4.870;2022-08-04T12:06:51;3.40;;;1.23;;
46330;SDS011;32049;52.346;4.870;2022-08-04T12:10:40;4.53;;;1.02;;
46330;SDS011;32049;52.346;4.870;2022-08-04T12:13:45;3.30;;;1.10;;
46330;SDS011;32049;52.346;4.870;2022-08-04T12:17:21;2.63;;;1.00;;
46330;SDS011;32049;52.346;4.870;2022-08-04T12:20:24;2.17;;;0.93;;
46330;SDS011;32049;52.346;4.870;2022-08-04T12:23:37;2.38;;;0.95;;
46330;SDS011;32049;52.346;4.870;2022-08-04T12:27:15;2.80;;;1.27;;
46330;SDS011;32049;52.346;4.870;2022-08-04T12:30:39;1.63;;;1.10;;
46330;SDS011;32049;52.346;4.870;2022-08-04T12:34:12;4.10;;;1.17;;
46330;SDS011;32049;52.346;4.870;2022-08-04T12:38:33;2.17;;;1.30;;
46330;SDS011;32049;52.346;4.870;2022-08-04T12:42:38;2.63;;;1.10;;
46330;SDS011;32049;52.346;4.870;2022-08-04T12:46:43;1.98;;;1.10;;
46330;SDS011;32049;52.346;4.870;2022-08-04T12:50:08;3.50;;;1.13;;
46330;SDS011;32049;52.346;4.870;2022-08-04T12:53:11;3.70;;;1.42;;
46330;SDS011;32049;52.346;4.870;2022-08-04T12:56:23;5.22;;;1.20;;
46330;SDS011;32049;52.346;4.870;2022-08-04T12:59:28;3.13;;;1.13;;
46330;SDS011;32049;52.346;4.870;2022-08-04T13:02:26;2.17;;;0.80;;
46330;SDS011;32049;52.346;4.870;2022-08-04T13:08:54;6.53;;;1.48;;
46330;SDS011;32049;52.346;4.870;2022-08-04T13:12:25;2.50;;;1.10;;
46330;SDS011;32049;52.346;4.870;2022-08-04T13:15:22;8.10;;;1.50;;
46330;SDS011;32049;52.346;4.870;2022-08-04T13:18:11;4.65;;;0.93;;
46330;SDS011;32049;52.346;4.870;2022-08-04T13:21:14;6.55;;;1.10;;
46330;SDS011;32049;52.346;4.870;2022-08-04T13:24:11;4.72;;;1.08;;
46330;SDS011;32049;52.346;4.870;2022-08-04T13:27:17;2.67;;;1.10;;
46330;SDS011;32049;52.346;4.870;2022-08-04T13:30:07;3.33;;;1.60;;
46330;SDS011;32049;52.346;4.870;2022-08-04T13:33:08;2.38;;;1.23;;
46330;SDS011;32049;52.346;4.870;2022-08-04T13:35:57;4.95;;;1.17;;
46330;SDS011;32049;52.346;4.870;2022-08-04T13:41:41;2.03;;;0.90;;
46330;SDS011;32049;52.346;4.870;2022-08-04T13:44:46;2.13;;;0.90;;
46330;SDS011;32049;52.346;4.870;2022-08-04T13:47:39;6.13;;;1.50;;
46330;SDS011;32049;52.346;4.870;2022-08-04T13:50:27;2.60;;;1.05;;
46330;SDS011;32049;52.346;4.870;2022-08-04T13:53:16;4.25;;;1.35;;
46330;SDS011;32049;52.346;4.870;2022-08-04T13:59:25;4.00;;;1.13;;
46330;SDS011;32049;52.346;4.870;2022-08-04T14:02:21;2.58;;;0.90;;
46330;SDS011;32049;52.346;4.870;2022-08-04T14:05:31;4.90;;;1.25;;
46330;SDS011;32049;52.346;4.870;2022-08-04T14:08:57;2.28;;;1.02;;
46330;SDS011;32049;52.346;4.870;2022-08-04T14:12:03;5.03;;;1.10;;
46330;SDS011;32049;52.346;4.870;2022-08-04T14:15:31;2.40;;;1.10;;
46330;SDS011;32049;52.346;4.870;2022-08-04T14:18:39;3.20;;;0.93;;
46330;SDS011;32049;52.346;4.870;2022-08-04T14:21:27;2.75;;;1.00;;
46330;SDS011;32049;52.346;4.870;2022-08-04T14:24:24;4.65;;;1.42;;
46330;SDS011;32049;52.346;4.870;2022-08-04T14:27:13;1.52;;;0.95;;
46330;SDS011;32049;52.346;4.870;2022-08-04T14:30:00;2.60;;;1.08;;
46330;SDS011;32049;52.346;4.870;2022-08-04T14:32:54;5.40;;;1.45;;
46330;SDS011;32049;52.346;4.870;2022-08-04T14:36:07;3.67;;;1.33;;
46330;SDS011;32049;52.346;4.870;2022-08-04T14:39:01;2.67;;;0.82;;
46330;SDS011;32049;52.346;4.870;2022-08-04T14:41:49;4.03;;;1.00;;
46330;SDS011;32049;52.346;4.870;2022-08-04T14:44:56;2.92;;;1.17;;
46330;SDS011;32049;52.346;4.870;2022-08-04T14:47:46;3.35;;;1.13;;
46330;SDS011;32049;52.346;4.870;2022-08-04T14:53:30;4.60;;;1.25;;
46330;SDS011;32049;52.346;4.870;2022-08-04T14:56:17;4.45;;;1.38;;
46330;SDS011;32049;52.346;4.870;2022-08-04T14:59:25;2.95;;;0.95;;
46330;SDS011;32049;52.346;4.870;2022-08-04T15:02:13;4.75;;;1.38;;
46330;SDS011;32049;52.346;4.870;2022-08-04T15:05:01;3.28;;;1.25;;
46330;SDS011;32049;52.346;4.870;2022-08-04T15:10:59;4.28;;;1.30;;
46330;SDS011;32049;52.346;4.870;2022-08-04T15:13:48;5.03;;;1.50;;
46330;SDS011;32049;52.346;4.870;2022-08-04T15:16:36;3.63;;;1.20;;
46330;SDS011;32049;52.346;4.870;2022-08-04T15:33:24;1.80;;;0.90;;
46330;SDS011;32049;52.346;4.870;2022-08-04T15:39:59;4.13;;;1.40;;
46330;SDS011;32049;52.346;4.870;2022-08-04T15:46:06;3.33;;;1.15;;
46330;SDS011;32049;52.346;4.870;2022-08-04T15:49:20;3.78;;;1.25;;
46330;SDS011;32049;52.346;4.870;2022-08-04T15:52:09;3.97;;;1.30;;
46330;SDS011;32049;52.346;4.870;2022-08-04T15:55:44;2.42;;;1.27;;
46330;SDS011;32049;52.346;4.870;2022-08-04T15:58:23;3.75;;;1.45;;
46330;SDS011;32049;52.346;4.870;2022-08-04T16:01:14;5.68;;;1.58;;
46330;SDS011;32049;52.346;4.870;2022-08-04T16:07:18;2.85;;;1.38;;
46330;SDS011;32049;52.346;4.870;2022-08-04T16:13:05;5.80;;;1.55;;
46330;SDS011;32049;52.346;4.870;2022-08-04T16:15:55;6.32;;;1.70;;
46330;SDS011;32049;52.346;4.870;2022-08-04T16:18:49;4.72;;;1.40;;
46330;SDS011;32049;52.346;4.870;2022-08-04T16:21:59;3.65;;;1.40;;
46330;SDS011;32049;52.346;4.870;2022-08-04T16:27:52;6.78;;;1.58;;
46330;SDS011;32049;52.346;4.870;2022-08-04T16:30:40;5.78;;;1.92;;
46330;SDS011;32049;52.346;4.870;2022-08-04T16:33:29;5.95;;;1.70;;
46330;SDS011;32049;52.346;4.870;2022-08-04T16:36:53;4.40;;;2.00;;
46330;SDS011;32049;52.346;4.870;2022-08-04T16:39:41;7.85;;;1.80;;
46330;SDS011;32049;52.346;4.870;2022-08-04T16:42:37;5.82;;;1.48;;
46330;SDS011;32049;52.346;4.870;2022-08-04T16:45:37;3.78;;;1.63;;
46330;SDS011;32049;52.346;4.870;2022-08-04T16:48:31;5.18;;;2.25;;
46330;SDS011;32049;52.346;4.870;2022-08-04T16:51:20;4.18;;;1.88;;
46330;SDS011;32049;52.346;4.870;2022-08-04T16:54:17;5.72;;;1.60;;
46330;SDS011;32049;52.346;4.870;2022-08-04T16:57:09;7.07;;;1.83;;
46330;SDS011;32049;52.346;4.870;2022-08-04T16:59:57;6.53;;;1.60;;
46330;SDS011;32049;52.346;4.870;2022-08-04T17:02:45;5.85;;;1.67;;
46330;SDS011;32049;52.346;4.870;2022-08-04T17:05:32;8.63;;;2.15;;
46330;SDS011;32049;52.346;4.870;2022-08-04T17:08:26;6.35;;;2.00;;
46330;SDS011;32049;52.346;4.870;2022-08-04T17:11:16;4.22;;;1.67;;
46330;SDS011;32049;52.346;4.870;2022-08-04T17:14:04;5.25;;;1.77;;
46330;SDS011;32049;52.346;4.870;2022-08-04T17:16:53;5.70;;;1.70;;
46330;SDS011;32049;52.346;4.870;2022-08-04T17:19:50;6.05;;;2.05;;
46330;SDS011;32049;52.346;4.870;2022-08-04T17:22:38;6.05;;;2.10;;
46330;SDS011;32049;52.346;4.870;2022-08-04T17:25:26;6.15;;;1.95;;
46330;SDS011;32049;52.346;4.870;2022-08-04T17:28:34;7.78;;;2.05;;
46330;SDS011;32049;52.346;4.870;2022-08-04T17:31:34;4.70;;;1.80;;
46330;SDS011;32049;52.346;4.870;2022-08-04T17:34:23;5.30;;;1.75;;
46330;SDS011;32049;52.346;4.870;2022-08-04T17:37:12;5.97;;;1.95;;
46330;SDS011;32049;52.346;4.870;2022-08-04T17:40:20;11.05;;;2.83;;
46330;SDS011;32049;52.346;4.870;2022-08-04T17:43:12;7.45;;;2.03;;
46330;SDS011;32049;52.346;4.870;2022-08-04T17:49:22;6.03;;;2.05;;
46330;SDS011;32049;52.346;4.870;2022-08-04T17:52:18;8.27;;;1.95;;
46330;SDS011;32049;52.346;4.870;2022-08-04T18:07:34;5.03;;;1.52;;
46330;SDS011;32049;52.346;4.870;2022-08-04T18:10:43;4.93;;;1.42;;
46330;SDS011;32049;52.346;4.870;2022-08-04T18:13:42;4.70;;;1.75;;
46330;SDS011;32049;52.346;4.870;2022-08-04T18:16:42;6.20;;;1.60;;
46330;SDS011;32049;52.346;4.870;2022-08-04T18:19:30;4.30;;;1.70;;
46330;SDS011;32049;52.346;4.870;2022-08-04T18:22:34;5.80;;;1.73;;
46330;SDS011;32049;52.346;4.870;2022-08-04T18:25:22;3.17;;;1.33;;
46330;SDS011;32049;52.346;4.870;2022-08-04T18:28:29;8.70;;;2.10;;
46330;SDS011;32049;52.346;4.870;2022-08-04T18:31:37;6.32;;;2.13;;
46330;SDS011;32049;52.346;4.870;2022-08-04T18:34:25;4.32;;;1.55;;
46330;SDS011;32049;52.346;4.870;2022-08-04T18:37:14;5.20;;;1.90;;
46330;SDS011;32049;52.346;4.870;2022-08-04T18:40:21;5.82;;;1.50;;
46330;SDS011;32049;52.346;4.870;2022-08-04T18:43:17;4.53;;;1.80;;
46330;SDS011;32049;52.346;4.870;2022-08-04T18:46:14;4.63;;;1.75;;
46330;SDS011;32049;52.346;4.870;2022-08-04T18:55:08;7.95;;;1.75;;
46330;SDS011;32049;52.346;4.870;2022-08-04T18:57:58;6.07;;;1.70;;
46330;SDS011;32049;52.346;4.870;2022-08-04T19:00:59;5.35;;;1.60;;
46330;SDS011;32049;52.346;4.870;2022-08-04T19:03:47;10.25;;;1.67;;
46330;SDS011;32049;52.346;4.870;2022-08-04T19:06:43;6.97;;;2.00;;
46330;SDS011;32049;52.346;4.870;2022-08-04T19:09:30;10.85;;;1.80;;
46330;SDS011;32049;52.346;4.870;2022-08-04T19:12:38;5.65;;;1.35;;
46330;SDS011;32049;52.346;4.870;2022-08-04T19:15:26;7.00;;;2.00;;
46330;SDS011;32049;52.346;4.870;2022-08-04T19:18:20;4.22;;;1.48;;
46330;SDS011;32049;52.346;4.870;2022-08-04T19:21:08;7.82;;;2.00;;
46330;SDS011;32049;52.346;4.870;2022-08-04T19:23:56;7.35;;;1.67;;
46330;SDS011;32049;52.346;4.870;2022-08-04T19:27:04;6.10;;;1.90;;
46330;SDS011;32049;52.346;4.870;2022-08-04T19:29:54;5.15;;;1.73;;
46330;SDS011;32049;52.346;4.870;2022-08-04T19:32:42;7.75;;;2.00;;
46330;SDS011;32049;52.346;4.870;2022-08-04T19:35:33;3.42;;;1.30;;
46330;SDS011;32049;52.346;4.870;2022-08-04T19:38:32;4.80;;;1.55;;
46330;SDS011;32049;52.346;4.870;2022-08-04T19:41:22;10.30;;;1.60;;
46330;SDS011;32049;52.346;4.870;2022-08-04T19:44:12;4.88;;;1.63;;
46330;SDS011;32049;52.346;4.870;2022-08-04T19:47:00;5.70;;;1.75;;
46330;SDS011;32049;52.346;4.870;2022-08-04T19:50:07;9.02;;;1.40;;
46330;SDS011;32049;52.346;4.870;2022-08-04T19:52:56;5.90;;;1.70;;
46330;SDS011;32049;52.346;4.870;2022-08-04T19:55:46;4.53;;;1.95;;
46330;SDS011;32049;52.346;4.870;2022-08-04T20:11:44;9.50;;;2.20;;
46330;SDS011;32049;52.346;4.870;2022-08-04T20:14:33;6.40;;;1.77;;
46330;SDS011;32049;52.346;4.870;2022-08-04T20:17:21;5.68;;;2.03;;
46330;SDS011;32049;52.346;4.870;2022-08-04T20:20:29;6.28;;;1.70;;
46330;SDS011;32049;52.346;4.870;2022-08-04T20:23:17;9.77;;;2.50;;
46330;SDS011;32049;52.346;4.870;2022-08-04T20:29:15;8.10;;;1.67;;
46330;SDS011;32049;52.346;4.870;2022-08-04T20:32:26;6.10;;;2.00;;
46330;SDS011;32049;52.346;4.870;2022-08-04T20:35:16;6.90;;;1.67;;
46330;SDS011;32049;52.346;4.870;2022-08-04T20:38:08;6.57;;;2.30;;
46330;SDS011;32049;52.346;4.870;2022-08-04T20:41:22;4.77;;;1.90;;
46330;SDS011;32049;52.346;4.870;2022-08-04T20:44:22;5.77;;;1.60;;
46330;SDS011;32049;52.346;4.870;2022-08-04T20:47:27;6.90;;;1.90;;
46330;SDS011;32049;52.346;4.870;2022-08-04T20:50:21;6.97;;;1.87;;
46330;SDS011;32049;52.346;4.870;2022-08-04T20:53:19;5.37;;;1.70;;
46330;SDS011;32049;52.346;4.870;2022-08-04T20:56:29;4.97;;;1.73;;
46330;SDS011;32049;52.346;4.870;2022-08-04T20:59:20;6.63;;;1.80;;
46330;SDS011;32049;52.346;4.870;2022-08-04T21:02:16;5.83;;;1.80;;
46330;SDS011;32049;52.346;4.870;2022-08-04T21:05:07;6.83;;;1.93;;
46330;SDS011;32049;52.346;4.870;2022-08-04T21:08:02;4.70;;;1.90;;
46330;SDS011;32049;52.346;4.870;2022-08-04T21:10:52;6.83;;;1.87;;
46330;SDS011;32049;52.346;4.870;2022-08-04T21:13:40;7.40;;;2.07;;
46330;SDS011;32049;52.346;4.870;2022-08-04T21:16:38;5.43;;;2.13;;
46330;SDS011;32049;52.346;4.870;2022-08-04T21:19:41;6.77;;;2.17;;
46330;SDS011;32049;52.346;4.870;2022-08-04T21:22:35;9.27;;;2.00;;
46330;SDS011;32049;52.346;4.870;2022-08-04T21:25:26;10.03;;;2.47;;
46330;SDS011;32049;52.346;4.870;2022-08-04T21:31:36;4.67;;;1.90;;
46330;SDS011;32049;52.346;4.870;2022-08-04T21:34:41;9.23;;;2.17;;
46330;SDS011;32049;52.346;4.870;2022-08-04T21:38:04;9.50;;;2.63;;
46330;SDS011;32049;52.346;4.870;2022-08-04T21:41:09;8.00;;;2.23;;
46330;SDS011;32049;52.346;4.870;2022-08-04T21:44:06;6.60;;;2.43;;
46330;SDS011;32049;52.346;4.870;2022-08-04T21:46:58;6.37;;;1.90;;
46330;SDS011;32049;52.346;4.870;2022-08-04T21:50:00;8.93;;;2.20;;
46330;SDS011;32049;52.346;4.870;2022-08-04T21:52:50;6.90;;;2.50;;
46330;SDS011;32049;52.346;4.870;2022-08-04T21:55:46;4.50;;;2.13;;
46330;SDS011;32049;52.346;4.870;2022-08-04T21:58:53;12.10;;;2.47;;
46330;SDS011;32049;52.346;4.870;2022-08-04T22:01:46;5.27;;;2.40;;
46330;SDS011;32049;52.346;4.870;2022-08-04T22:04:40;7.57;;;2.60;;
46330;SDS011;32049;52.346;4.870;2022-08-04T22:07:33;9.27;;;2.80;;
46330;SDS011;32049;52.346;4.870;2022-08-04T22:10:43;9.07;;;2.87;;
46330;SDS011;32049;52.346;4.870;2022-08-04T22:13:36;7.73;;;2.80;;
46330;SDS011;32049;52.346;4.870;2022-08-04T22:16:46;7.23;;;2.73;;
46330;SDS011;32049;52.346;4.870;2022-08-04T22:19:40;10.37;;;2.90;;
46330;SDS011;32049;52.346;4.870;2022-08-04T22:22:41;9.90;;;2.77;;
46330;SDS011;32049;52.346;4.870;2022-08-04T22:26:22;6.43;;;2.03;;
46330;SDS011;32049;52.346;4.870;2022-08-04T22:29:29;8.37;;;2.73;;
46330;SDS011;32049;52.346;4.870;2022-08-04T22:32:31;5.87;;;2.30;;
46330;SDS011;32049;52.346;4.870;2022-08-04T22:35:32;6.10;;;2.40;;
46330;SDS011;32049;52.346;4.870;2022-08-04T22:38:51;5.37;;;2.10;;
46330;SDS011;32049;52.346;4.870;2022-08-04T22:41:56;5.67;;;2.23;;
46330;SDS011;32049;52.346;4.870;2022-08-04T22:45:14;8.05;;;2.58;;
46330;SDS011;32049;52.346;4.870;2022-08-04T22:48:22;8.00;;;2.03;;
46330;SDS011;32049;52.346;4.870;2022-08-04T22:51:13;6.70;;;1.90;;
46330;SDS011;32049;52.346;4.870;2022-08-04T22:54:02;6.27;;;2.40;;
46330;SDS011;32049;52.346;4.870;2022-08-04T22:56:59;7.73;;;2.20;;
46330;SDS011;32049;52.346;4.870;2022-08-04T23:00:07;9.10;;;2.00;;
46330;SDS011;32049;52.346;4.870;2022-08-04T23:03:05;7.30;;;2.10;;
46330;SDS011;32049;52.346;4.870;2022-08-04T23:06:16;8.37;;;2.20;;
46330;SDS011;32049;52.346;4.870;2022-08-04T23:09:12;5.67;;;2.20;;
46330;SDS011;32049;52.346;4.870;2022-08-04T23:12:02;5.90;;;2.00;;
46330;SDS011;32049;52.346;4.870;2022-08-04T23:15:12;7.47;;;1.80;;
46330;SDS011;32049;52.346;4.870;2022-08-04T23:18:12;5.07;;;2.30;;
46330;SDS011;32049;52.346;4.870;2022-08-04T23:21:04;4.70;;;1.50;;
46330;SDS011;32049;52.346;4.870;2022-08-04T23:23:59;7.07;;;1.93;;
46330;SDS011;32049;52.346;4.870;2022-08-04T23:29:43;3.87;;;1.50;;
46330;SDS011;32049;52.346;4.870;2022-08-04T23:32:40;5.97;;;1.50;;
46330;SDS011;32049;52.346;4.870;2022-08-04T23:35:32;7.23;;;1.70;;
46330;SDS011;32049;52.346;4.870;2022-08-04T23:38:26;6.70;;;1.70;;
46330;SDS011;32049;52.346;4.870;2022-08-04T23:41:17;4.20;;;1.73;;
46330;SDS011;32049;52.346;4.870;2022-08-04T23:44:09;3.13;;;1.40;;
46330;SDS011;32049;52.346;4.870;2022-08-04T23:47:03;5.20;;;1.60;;
46330;SDS011;32049;52.346;4.870;2022-08-04T23:50:01;4.57;;;1.93;;
46330;SDS011;32049;52.346;4.870;2022-08-04T23:53:00;6.37;;;1.60;;
46330;SDS011;32049;52.346;4.870;2022-08-04T23:55:50;4.47;;;1.60;;
46330;SDS011;32049;52.346;4.870;2022-08-04T23:58:43;6.57;;;1.90;;
